Time;durP1;ratioP1;P1;durP2;ratioP2;P2;SDS_P1;SDS_P2;PMS_P1;PMS_P2;Temp;Humidity;BMP_temperature;BMP_pressure;BME280_temperature;BME280_humidity;BME280_pressure;Samples;Min_cycle;Max_cycle;Signal;HPM_P1;HPM_P2
2023/09/17 00:00:57;;;;;;;16.80;15.10;;;;;;;18.30;100.00;101255.97;5049386;28;20386;-54
2023/09/17 00:03:22;;;;;;;19.02;15.32;;;;;;;18.26;100.00;101262.66;5043843;28;20426;-55
2023/09/17 00:05:47;;;;;;;19.95;15.18;;;;;;;18.24;100.00;101253.91;5050287;28;20025;-52
2023/09/17 00:08:13;;;;;;;16.25;14.65;;;;;;;18.22;100.00;101247.00;5051461;28;20032;-53
2023/09/17 00:10:41;;;;;;;14.98;13.32;;;;;;;18.20;100.00;101249.88;5051864;28;20040;-55
2023/09/17 00:13:06;;;;;;;15.02;13.52;;;;;;;18.17;100.00;101242.13;5050013;28;20021;-52
2023/09/17 00:15:32;;;;;;;15.88;12.60;;;;;;;18.16;100.00;101248.47;5056652;28;20559;-54
2023/09/17 00:17:57;;;;;;;14.88;13.30;;;;;;;18.11;100.00;101242.75;5045732;28;20045;-54
2023/09/17 00:20:22;;;;;;;14.45;12.95;;;;;;;18.07;100.00;101238.69;5046578;28;20028;-55
2023/09/17 00:22:48;;;;;;;14.60;12.68;;;;;;;18.07;100.00;101258.34;5048492;28;20021;-52
2023/09/17 00:25:13;;;;;;;13.88;11.93;;;;;;;18.06;100.00;101261.19;5046758;28;20017;-53
2023/09/17 00:27:41;;;;;;;13.45;11.88;;;;;;;18.04;100.00;101255.13;5050436;28;20471;-54
2023/09/17 00:30:09;;;;;;;13.67;12.27;;;;;;;18.02;100.00;101257.97;5041587;28;20026;-55
2023/09/17 00:32:34;;;;;;;13.48;11.05;;;;;;;17.99;100.00;101247.53;5050699;28;20033;-52
2023/09/17 00:34:59;;;;;;;13.93;11.10;;;;;;;17.97;100.00;101254.91;5039747;28;20503;-55
2023/09/17 00:37:24;;;;;;;12.02;10.70;;;;;;;17.95;100.00;101248.81;5050878;28;20044;-54
2023/09/17 00:39:50;;;;;;;11.38;10.13;;;;;;;17.92;100.00;101250.00;5043671;28;20032;-53
2023/09/17 00:42:16;;;;;;;12.27;11.07;;;;;;;17.89;100.00;101255.69;5039984;28;20471;-54
2023/09/17 00:44:42;;;;;;;12.27;9.68;;;;;;;17.86;100.00;101249.75;5042384;28;20049;-55
2023/09/17 00:47:08;;;;;;;11.23;10.05;;;;;;;17.83;100.00;101248.19;5046814;28;20391;-54
2023/09/17 00:49:34;;;;;;;11.10;9.52;;;;;;;17.80;100.00;101247.66;5043899;28;20131;-55
2023/09/17 00:52:01;;;;;;;11.73;10.60;;;;;;;17.76;100.00;101247.13;5048419;28;20037;-51
2023/09/17 00:54:28;;;;;;;11.90;10.65;;;;;;;17.68;99.96;101234.47;5046669;28;20108;-55
2023/09/17 00:56:55;;;;;;;11.60;10.43;;;;;;;17.65;99.51;101234.81;5048041;28;20033;-52
2023/09/17 00:59:21;;;;;;;13.57;10.70;;;;;;;17.62;100.00;101232.41;5048833;28;20103;-51
2023/09/17 01:01:46;;;;;;;11.70;10.45;;;;;;;17.59;100.00;101226.50;5047328;28;20535;-51
2023/09/17 01:04:12;;;;;;;13.15;10.75;;;;;;;17.54;100.00;101227.81;5048366;28;20025;-51
2023/09/17 01:06:40;;;;;;;11.45;10.35;;;;;;;17.49;100.00;101224.75;5046063;28;20528;-51
2023/09/17 01:09:07;;;;;;;14.27;10.95;;;;;;;17.48;100.00;101225.72;5047160;28;20060;-51
2023/09/17 01:11:34;;;;;;;13.93;11.40;;;;;;;17.44;100.00;101227.03;5052427;28;20037;-52
2023/09/17 01:14:08;;;;;;;11.88;10.77;;;;;;;17.42;100.00;101226.34;5044255;28;20116;-52
2023/09/17 01:16:34;;;;;;;12.68;11.35;;;;;;;17.40;100.00;101228.34;5045374;28;20083;-52
2023/09/17 01:19:00;;;;;;;12.43;10.60;;;;;;;17.36;100.00;101224.28;5043488;28;20036;-51
2023/09/17 01:21:38;;;;;;;13.30;11.65;;;;;;;17.32;100.00;101214.81;5053406;28;20398;-52
2023/09/17 01:24:13;;;;;;;15.65;11.60;;;;;;;17.28;100.00;101214.28;5047017;28;20406;-52
2023/09/17 01:26:40;;;;;;;15.48;11.25;;;;;;;17.18;100.00;101213.53;5049094;28;20036;-53
2023/09/17 01:29:06;;;;;;;13.60;12.02;;;;;;;17.12;100.00;101206.06;5051303;28;20369;-52
2023/09/17 01:31:34;;;;;;;13.35;12.05;;;;;;;17.05;100.00;101197.78;5051030;28;20039;-52
2023/09/17 01:34:00;;;;;;;13.00;11.70;;;;;;;17.03;100.00;101202.47;5050775;28;20037;-52
2023/09/17 01:36:38;;;;;;;14.05;12.55;;;;;;;17.00;100.00;101213.50;5050391;28;20029;-52
2023/09/17 01:39:18;;;;;;;13.65;12.25;;;;;;;16.92;100.00;101205.34;5046684;28;20072;-54
2023/09/17 01:41:44;;;;;;;13.80;11.75;;;;;;;16.86;100.00;101200.59;5050433;28;20041;-52
2023/09/17 01:44:11;;;;;;;14.20;12.80;;;;;;;16.79;100.00;101195.78;5045116;28;20047;-52
2023/09/17 01:46:39;;;;;;;14.52;12.80;;;;;;;16.71;100.00;101193.00;5048541;28;20033;-53
2023/09/17 01:49:05;;;;;;;13.60;12.30;;;;;;;16.71;100.00;101193.00;5044027;28;20022;-52
2023/09/17 01:51:31;;;;;;;14.10;12.02;;;;;;;16.68;100.00;101179.06;5046556;28;20032;-52
2023/09/17 01:53:56;;;;;;;14.18;12.70;;;;;;;16.63;100.00;101174.13;5053177;28;20029;-52
2023/09/17 01:56:22;;;;;;;14.40;12.73;;;;;;;16.60;100.00;101180.66;5048460;28;20028;-52
2023/09/17 01:58:47;;;;;;;15.47;12.70;;;;;;;16.57;100.00;101172.03;5053561;28;20036;-52
2023/09/17 02:01:13;;;;;;;16.55;12.23;;;;;;;16.55;100.00;101171.34;5044771;28;20720;-52
2023/09/17 02:03:39;;;;;;;14.93;13.43;;;;;;;16.54;100.00;101175.03;5055457;28;20028;-53
2023/09/17 02:06:04;;;;;;;15.55;13.18;;;;;;;16.53;100.00;101184.91;5052358;28;20021;-52
2023/09/17 02:08:30;;;;;;;15.55;13.45;;;;;;;16.53;100.00;101184.91;5053393;28;20028;-52
2023/09/17 02:10:56;;;;;;;16.00;13.20;;;;;;;16.51;100.00;101180.69;5048498;28;20033;-52
2023/09/17 02:13:21;;;;;;;14.45;12.95;;;;;;;16.52;100.00;101185.91;5052165;28;20090;-52
2023/09/17 02:15:46;;;;;;;15.65;13.52;;;;;;;16.52;100.00;101191.28;5056482;28;20532;-53
2023/09/17 02:18:12;;;;;;;14.45;12.55;;;;;;;16.53;100.00;101200.16;5046025;28;20025;-55
2023/09/17 02:20:40;;;;;;;15.63;13.43;;;;;;;16.50;100.00;101198.59;5048854;28;20025;-52
2023/09/17 02:23:06;;;;;;;15.95;14.40;;;;;;;16.45;100.00;101182.97;5051752;28;20032;-52
2023/09/17 02:25:32;;;;;;;15.55;14.05;;;;;;;16.44;100.00;101181.28;5046395;28;20037;-54
2023/09/17 02:27:57;;;;;;;16.50;14.20;;;;;;;16.45;100.00;101174.06;5051261;28;20071;-53
2023/09/17 02:30:23;;;;;;;16.75;14.93;;;;;;;16.44;100.00;101170.56;5044896;28;20387;-54
2023/09/17 02:32:48;;;;;;;17.23;15.27;;;;;;;16.43;100.00;101165.34;5047312;28;20368;-52
2023/09/17 02:35:13;;;;;;;15.90;14.25;;;;;;;16.39;100.00;101162.13;5056470;28;20029;-52
2023/09/17 02:37:39;;;;;;;17.60;15.70;;;;;;;16.41;100.00;101170.00;5051052;28;20017;-54
2023/09/17 02:40:08;;;;;;;17.65;15.80;;;;;;;16.42;100.00;101161.81;5046372;28;20340;-52
2023/09/17 02:42:34;;;;;;;18.08;16.27;;;;;;;16.40;100.00;101155.78;5052230;28;20127;-52
2023/09/17 02:44:59;;;;;;;18.42;16.48;;;;;;;16.43;100.00;101154.63;5044124;28;20595;-55
2023/09/17 02:47:24;;;;;;;17.90;16.15;;;;;;;16.41;100.00;101153.94;5054673;28;20064;-55
2023/09/17 02:49:50;;;;;;;17.88;16.08;;;;;;;16.42;100.00;101150.25;5042003;28;20112;-54
2023/09/17 02:52:15;;;;;;;18.90;17.00;;;;;;;16.42;100.00;101137.69;5046314;28;20025;-54
2023/09/17 02:54:40;;;;;;;18.08;16.25;;;;;;;16.42;100.00;101147.56;5044559;28;20475;-55
2023/09/17 02:57:07;;;;;;;18.55;16.50;;;;;;;16.42;100.00;101155.59;5049011;28;20021;-55
2023/09/17 02:59:34;;;;;;;18.75;16.88;;;;;;;16.35;100.00;101144.63;5045055;28;20022;-56
2023/09/17 03:02:00;;;;;;;19.23;17.15;;;;;;;16.34;100.00;101148.31;5054382;28;20116;-55
2023/09/17 03:04:26;;;;;;;19.00;17.10;;;;;;;16.32;100.00;101150.31;5050505;28;20117;-55
2023/09/17 03:06:52;;;;;;;20.83;17.60;;;;;;;16.33;100.00;101149.28;5052722;28;20085;-56
2023/09/17 03:09:18;;;;;;;19.00;17.02;;;;;;;16.31;100.00;101147.78;5044528;28;20535;-56
2023/09/17 03:11:43;;;;;;;21.70;18.02;;;;;;;16.25;100.00;101143.81;5046721;28;20035;-55
2023/09/17 03:14:09;;;;;;;19.40;17.48;;;;;;;16.21;100.00;101135.25;5042666;28;20104;-56
2023/09/17 03:16:34;;;;;;;18.85;16.85;;;;;;;16.18;100.00;101132.84;5047528;28;20029;-53
2023/09/17 03:19:00;;;;;;;19.55;16.92;;;;;;;16.14;100.00;101134.16;5045726;28;20029;-56
2023/09/17 03:21:26;;;;;;;20.08;18.02;;;;;;;16.13;100.00;101140.50;5048118;28;20433;-55
2023/09/17 03:23:51;;;;;;;18.85;16.92;;;;;;;16.11;100.00;101142.47;5048413;28;20542;-55
2023/09/17 03:26:16;;;;;;;20.85;17.55;;;;;;;16.11;100.00;101152.38;5037724;28;20025;-53
2023/09/17 03:28:41;;;;;;;19.88;17.88;;;;;;;16.09;100.00;101141.78;5049133;28;20021;-54
2023/09/17 03:31:07;;;;;;;18.80;16.83;;;;;;;16.06;100.00;101142.91;5047572;28;20020;-53
2023/09/17 03:33:32;;;;;;;17.67;15.77;;;;;;;16.00;100.00;101138.13;5044852;28;20056;-52
2023/09/17 03:35:59;;;;;;;18.10;16.27;;;;;;;15.97;100.00;101140.25;5046235;28;20021;-52
2023/09/17 03:38:24;;;;;;;19.10;16.10;;;;;;;15.96;100.00;101136.75;5045316;28;20036;-52
2023/09/17 03:40:50;;;;;;;17.08;15.38;;;;;;;15.98;100.00;101142.78;5042591;28;20036;-52
2023/09/17 03:43:15;;;;;;;17.70;15.95;;;;;;;15.98;100.00;101145.47;5048281;28;20052;-52
2023/09/17 03:45:43;;;;;;;18.55;16.65;;;;;;;15.93;100.00;101144.22;5042198;28;20042;-52
2023/09/17 03:48:08;;;;;;;19.73;16.92;;;;;;;15.89;100.00;101147.19;5050023;28;20028;-53
2023/09/17 03:50:39;;;;;;;18.45;16.38;;;;;;;15.88;100.00;101139.31;5046074;28;20036;-53
2023/09/17 03:53:05;;;;;;;19.48;16.98;;;;;;;15.86;100.00;101144.81;5045624;28;20094;-53
2023/09/17 03:55:33;;;;;;;19.20;17.15;;;;;;;15.87;100.00;101137.59;5054078;28;20044;-52
2023/09/17 03:57:59;;;;;;;19.05;17.10;;;;;;;15.82;100.00;101143.41;5041620;28;20033;-52
2023/09/17 04:00:24;;;;;;;19.35;16.95;;;;;;;15.85;100.00;101145.81;5050921;28;20082;-52
2023/09/17 04:02:50;;;;;;;18.80;16.98;;;;;;;15.84;100.00;101144.09;5049634;28;20443;-54
2023/09/17 04:05:16;;;;;;;19.48;17.40;;;;;;;15.83;100.00;101153.13;5052176;28;20053;-52
2023/09/17 04:07:44;;;;;;;19.55;17.55;;;;;;;15.80;100.00;101140.00;5040279;28;20553;-53
2023/09/17 04:10:10;;;;;;;19.92;17.92;;;;;;;15.81;100.00;101140.88;5050517;28;20017;-52
2023/09/17 04:12:37;;;;;;;22.00;17.77;;;;;;;15.82;100.00;101145.22;5045386;28;20037;-52
2023/09/17 04:15:07;;;;;;;19.70;17.20;;;;;;;15.80;100.00;101137.34;5046885;28;20363;-52
2023/09/17 04:17:32;;;;;;;20.95;18.70;;;;;;;15.79;100.00;101140.19;5043514;28;20032;-52
2023/09/17 04:19:57;;;;;;;20.02;18.10;;;;;;;15.81;100.00;101141.72;5045152;28;20033;-52
2023/09/17 04:22:23;;;;;;;19.15;17.15;;;;;;;15.81;100.00;101139.03;5043566;28;20032;-53
2023/09/17 04:24:49;;;;;;;19.73;17.73;;;;;;;15.79;100.00;101132.16;5053536;28;20112;-52
2023/09/17 04:27:15;;;;;;;21.35;19.15;;;;;;;15.80;100.00;101129.31;5041400;28;20029;-51
2023/09/17 04:29:40;;;;;;;21.05;18.85;;;;;;;15.81;100.00;101127.50;5046974;28;20473;-52
2023/09/17 04:32:06;;;;;;;21.25;19.15;;;;;;;15.80;100.00;101128.47;5045215;28;20112;-52
2023/09/17 04:34:31;;;;;;;22.20;19.88;;;;;;;15.83;100.00;101137.06;5051570;28;20021;-52
2023/09/17 04:36:58;;;;;;;21.30;19.02;;;;;;;15.83;100.00;101136.22;5041402;28;20159;-52
2023/09/17 04:39:24;;;;;;;20.92;18.77;;;;;;;15.83;100.00;101128.19;5045884;28;20036;-51
2023/09/17 04:41:50;;;;;;;21.65;19.50;;;;;;;15.87;100.00;101134.94;5044508;28;20037;-51
2023/09/17 04:44:15;;;;;;;23.65;21.17;;;;;;;15.85;100.00;101127.06;5045631;28;20037;-52
2023/09/17 04:46:42;;;;;;;23.83;21.25;;;;;;;15.88;100.00;101137.47;5044509;28;20395;-52
2023/09/17 04:49:11;;;;;;;23.20;20.85;;;;;;;15.86;100.00;101123.38;5042520;28;20032;-52
2023/09/17 04:51:37;;;;;;;22.40;20.00;;;;;;;15.92;100.00;101127.31;5044516;28;20029;-52
2023/09/17 04:54:03;;;;;;;22.38;20.00;;;;;;;15.93;100.00;101125.47;5048978;28;20028;-52
2023/09/17 04:56:30;;;;;;;23.05;20.60;;;;;;;15.91;100.00;101129.13;5044635;28;20033;-53
2023/09/17 04:58:57;;;;;;;23.15;20.90;;;;;;;15.88;100.00;101124.06;5053529;28;20025;-52
2023/09/17 05:01:23;;;;;;;23.98;21.48;;;;;;;15.90;100.00;101126.59;5047533;28;20032;-52
2023/09/17 05:03:48;;;;;;;24.27;20.77;;;;;;;15.91;100.00;101120.25;5050948;28;20056;-51
2023/09/17 05:06:13;;;;;;;23.90;20.40;;;;;;;15.94;100.00;101121.78;5049743;28;20058;-52
2023/09/17 05:08:38;;;;;;;23.30;21.00;;;;;;;15.92;100.00;101127.31;5049527;28;20032;-52
2023/09/17 05:11:05;;;;;;;24.15;21.65;;;;;;;15.95;100.00;101132.38;5054107;28;20295;-52
2023/09/17 05:13:31;;;;;;;23.95;21.45;;;;;;;15.94;100.00;101129.81;5049576;28;20021;-54
2023/09/17 05:15:56;;;;;;;22.98;20.70;;;;;;;15.96;100.00;101131.38;5045812;28;20021;-53
2023/09/17 05:18:21;;;;;;;22.55;20.25;;;;;;;15.95;100.00;101134.22;5051132;28;20051;-52
2023/09/17 05:20:48;;;;;;;24.77;22.27;;;;;;;15.95;100.00;101129.69;5044090;28;20049;-53
2023/09/17 05:23:13;;;;;;;24.55;21.25;;;;;;;15.99;100.00;101135.63;5055474;28;20051;-53
2023/09/17 05:25:39;;;;;;;23.58;21.25;;;;;;;15.98;100.00;101136.59;5045755;28;20549;-52
2023/09/17 05:28:07;;;;;;;24.13;21.73;;;;;;;15.96;100.00;101139.44;5048935;28;20032;-53
2023/09/17 05:30:34;;;;;;;24.20;21.73;;;;;;;15.99;100.00;101139.13;5045802;28;20029;-51
2023/09/17 05:32:59;;;;;;;24.40;21.98;;;;;;;16.00;100.00;101140.81;5058943;28;20022;-50
2023/09/17 05:35:25;;;;;;;25.27;22.33;;;;;;;15.97;100.00;101132.22;5053920;28;20116;-51
2023/09/17 05:37:50;;;;;;;25.88;23.17;;;;;;;15.99;100.00;101135.63;5056331;28;20451;-52
2023/09/17 05:40:15;;;;;;;24.88;21.98;;;;;;;16.00;100.00;101139.97;5048916;28;20104;-51
2023/09/17 05:42:40;;;;;;;24.75;22.13;;;;;;;16.01;100.00;101134.47;5052988;28;20546;-54
2023/09/17 05:45:06;;;;;;;25.00;22.52;;;;;;;16.03;100.00;101137.84;5044295;28;20048;-52
2023/09/17 05:47:32;;;;;;;25.17;22.42;;;;;;;16.02;100.00;101140.66;5048385;28;20033;-52
2023/09/17 05:49:57;;;;;;;24.63;22.23;;;;;;;16.04;100.00;101138.72;5041085;28;20025;-53
2023/09/17 05:52:22;;;;;;;24.13;21.73;;;;;;;16.06;100.00;101137.56;5039538;28;20033;-51
2023/09/17 05:54:48;;;;;;;24.98;22.27;;;;;;;16.06;100.00;101136.72;5044984;28;20030;-54
2023/09/17 05:57:13;;;;;;;23.95;21.55;;;;;;;16.06;100.00;101132.19;5040217;28;20131;-52
2023/09/17 05:59:39;;;;;;;25.00;22.40;;;;;;;16.07;100.00;101130.34;5039665;28;20428;-53
2023/09/17 06:02:04;;;;;;;24.83;21.75;;;;;;;16.09;100.00;101134.59;5044722;28;20640;-50
2023/09/17 06:04:30;;;;;;;25.05;22.60;;;;;;;16.08;100.00;101127.53;5038745;28;20022;-51
2023/09/17 06:06:55;;;;;;;25.33;22.73;;;;;;;16.11;100.00;101137.13;5035955;28;20048;-51
2023/09/17 06:09:20;;;;;;;25.55;22.95;;;;;;;16.08;100.00;101132.88;5055160;28;20028;-51
2023/09/17 06:11:47;;;;;;;25.10;22.48;;;;;;;16.12;100.00;101137.97;5050822;28;20025;-51
2023/09/17 06:14:12;;;;;;;27.60;23.23;;;;;;;16.11;100.00;101139.81;5048278;28;20156;-53
2023/09/17 06:16:38;;;;;;;24.55;22.13;;;;;;;16.12;100.00;101137.97;5053127;28;20112;-52
2023/09/17 06:19:03;;;;;;;25.40;22.70;;;;;;;16.11;100.00;101142.47;5057446;28;20036;-53
2023/09/17 06:21:28;;;;;;;25.77;23.08;;;;;;;16.13;100.00;101137.81;5039876;28;20036;-54
2023/09/17 06:23:54;;;;;;;27.63;24.70;;;;;;;16.12;100.00;101141.50;5039299;28;20036;-51
2023/09/17 06:26:19;;;;;;;26.02;23.40;;;;;;;16.13;100.00;101150.38;5039472;28;20057;-53
2023/09/17 06:28:44;;;;;;;25.55;22.98;;;;;;;16.14;100.00;101139.50;5045445;28;20040;-53
2023/09/17 06:31:10;;;;;;;27.45;23.70;;;;;;;16.14;100.00;101139.50;5052195;28;20056;-51
2023/09/17 06:33:35;;;;;;;26.13;23.42;;;;;;;16.15;100.00;101137.66;5041526;28;20043;-53
2023/09/17 06:36:01;;;;;;;25.38;22.85;;;;;;;16.18;100.00;101140.06;5052767;28;20113;-54
2023/09/17 06:38:29;;;;;;;25.38;23.05;;;;;;;16.16;100.00;101142.88;5045285;28;20027;-52
2023/09/17 06:40:54;;;;;;;25.13;22.52;;;;;;;16.20;100.00;101143.44;5043285;28;20041;-50
2023/09/17 06:43:19;;;;;;;25.27;22.88;;;;;;;16.20;100.00;101143.44;5046126;28;20075;-51
2023/09/17 06:45:44;;;;;;;26.30;23.52;;;;;;;16.21;100.00;101131.72;5045020;28;20452;-51
2023/09/17 06:48:10;;;;;;;26.05;23.63;;;;;;;16.20;100.00;101140.75;5036926;28;20029;-51
2023/09/17 06:50:35;;;;;;;24.52;22.23;;;;;;;16.23;100.00;101135.94;5041907;28;20029;-51
2023/09/17 06:53:01;;;;;;;26.38;23.95;;;;;;;16.26;100.00;101138.31;5058552;28;20116;-52
2023/09/17 06:55:26;;;;;;;26.50;23.77;;;;;;;16.22;100.00;101136.06;5051717;28;20040;-51
2023/09/17 06:57:51;;;;;;;26.90;24.30;;;;;;;16.26;100.00;101134.81;5038504;28;20029;-53
2023/09/17 07:00:17;;;;;;;26.98;24.15;;;;;;;16.28;100.00;101132.81;5046582;28;20397;-51
2023/09/17 07:02:43;;;;;;;27.23;24.58;;;;;;;16.30;100.00;101140.72;5037875;28;20395;-53
2023/09/17 07:05:10;;;;;;;28.00;25.35;;;;;;;16.30;100.00;101141.53;5042020;28;20048;-53
2023/09/17 07:07:36;;;;;;;28.40;25.60;;;;;;;16.31;100.00;101143.25;5042964;28;20032;-51
2023/09/17 07:10:04;;;;;;;31.05;26.45;;;;;;;16.33;100.00;101146.63;5045068;28;20035;-52
2023/09/17 07:12:29;;;;;;;27.92;24.98;;;;;;;16.36;100.00;101145.50;5051858;28;20029;-53
2023/09/17 07:14:54;;;;;;;29.75;26.75;;;;;;;16.36;100.00;101140.13;5046810;28;20025;-52
2023/09/17 07:17:19;;;;;;;29.27;26.38;;;;;;;16.38;100.00;101135.47;5047166;28;20017;-53
2023/09/17 07:19:45;;;;;;;29.77;26.98;;;;;;;16.39;100.00;101131.78;5041445;28;20426;-54
2023/09/17 07:22:14;;;;;;;28.15;25.02;;;;;;;16.45;100.00;101137.41;5050018;28;20115;-51
2023/09/17 07:24:40;;;;;;;27.75;24.95;;;;;;;16.48;100.00;101128.19;5051149;28;20037;-51
2023/09/17 07:27:06;;;;;;;30.02;27.08;;;;;;;16.50;100.00;101118.16;5049158;28;20035;-51
2023/09/17 07:29:31;;;;;;;29.02;26.00;;;;;;;16.57;100.00;101121.97;5042816;28;20043;-51
2023/09/17 07:31:56;;;;;;;29.38;26.38;;;;;;;16.65;100.00;101123.88;5039434;28;20029;-53
2023/09/17 07:34:23;;;;;;;30.55;27.60;;;;;;;16.68;100.00;101126.25;5055213;28;20082;-50
2023/09/17 07:36:49;;;;;;;30.90;27.77;;;;;;;16.68;100.00;101115.53;5046325;28;20045;-51
2023/09/17 07:39:14;;;;;;;29.88;26.85;;;;;;;16.76;100.00;101122.84;5050655;28;20056;-52
2023/09/17 07:41:40;;;;;;;29.83;26.95;;;;;;;16.80;100.00;101122.38;5045653;28;20044;-51
2023/09/17 07:44:05;;;;;;;30.23;27.15;;;;;;;16.84;100.00;101130.97;5044218;28;20033;-51
2023/09/17 07:46:30;;;;;;;31.00;27.95;;;;;;;16.86;100.00;101128.16;5044500;28;20048;-53
2023/09/17 07:48:56;;;;;;;31.38;28.08;;;;;;;16.90;100.00;101129.53;5037074;28;20029;-54
2023/09/17 07:51:21;;;;;;;31.40;28.10;;;;;;;16.92;100.00;101127.53;5039307;28;20035;-53
2023/09/17 07:53:47;;;;;;;33.47;30.08;;;;;;;16.92;100.00;101130.22;5043184;28;20084;-54
2023/09/17 07:56:12;;;;;;;32.08;28.98;;;;;;;16.94;100.00;101130.94;5041033;28;20033;-56
2023/09/17 07:58:37;;;;;;;32.35;28.95;;;;;;;16.97;100.00;101134.16;5042344;28;20055;-55
2023/09/17 08:01:05;;;;;;;34.25;29.23;;;;;;;16.98;100.00;101130.44;5042611;28;20025;-51
2023/09/17 08:03:31;;;;;;;33.07;29.67;;;;;;;17.02;100.00;101144.44;5034156;28;20503;-53
2023/09/17 08:05:57;;;;;;;30.75;27.88;;;;;;;17.06;100.00;101145.81;5021681;28;20040;-54
2023/09/17 08:08:22;;;;;;;31.58;28.30;;;;;;;17.11;100.00;101143.50;5030585;28;20029;-55
2023/09/17 08:10:49;;;;;;;33.20;29.92;;;;;;;17.10;100.00;101149.88;5036907;28;20050;-53
2023/09/17 08:13:14;;;;;;;37.30;30.20;;;;;;;17.15;100.00;101152.94;5040794;28;20029;-51
2023/09/17 08:15:40;;;;;;;33.72;29.35;;;;;;;17.18;100.00;101149.94;5045200;28;20112;-53
2023/09/17 08:18:05;;;;;;;32.97;29.50;;;;;;;17.22;100.00;101149.63;5040462;28;20048;-52
2023/09/17 08:20:31;;;;;;;31.33;28.08;;;;;;;17.25;100.00;101155.53;5038493;28;20068;-51
2023/09/17 08:22:56;;;;;;;34.20;30.00;;;;;;;17.29;100.00;101156.09;5044428;28;20040;-51
2023/09/17 08:25:22;;;;;;;40.58;30.83;;;;;;;17.30;100.00;101153.25;5036670;28;20109;-55
2023/09/17 08:27:48;;;;;;;50.00;31.15;;;;;;;17.34;100.00;101156.47;5041598;28;20566;-54
2023/09/17 08:30:15;;;;;;;33.20;29.67;;;;;;;17.37;100.00;101148.13;5046995;28;20075;-54
2023/09/17 08:32:43;;;;;;;39.33;30.42;;;;;;;17.40;100.00;101158.50;5040616;28;20479;-54
2023/09/17 08:35:09;;;;;;;37.30;33.00;;;;;;;17.43;100.00;101150.16;5040742;28;20117;-54
2023/09/17 08:37:38;;;;;;;37.83;32.17;;;;;;;17.47;100.00;101158.75;5040234;28;20538;-52
2023/09/17 08:40:09;;;;;;;38.17;32.65;;;;;;;17.51;100.00;101144.03;5041450;28;20043;-52
2023/09/17 08:42:40;;;;;;;38.05;34.35;;;;;;;17.56;100.00;101150.59;5045759;28;20136;-52
2023/09/17 08:45:06;;;;;;;36.50;32.45;;;;;;;17.59;100.00;101151.31;5041195;28;20053;-52
2023/09/17 08:47:31;;;;;;;39.47;35.47;;;;;;;17.60;100.00;101144.91;5047383;28;20043;-50
2023/09/17 08:49:57;;;;;;;38.20;34.30;;;;;;;17.67;100.00;101160.28;5043443;28;20030;-53
2023/09/17 08:52:26;;;;;;;40.88;36.60;;;;;;;17.69;100.00;101162.81;5041474;28;20414;-54
2023/09/17 08:54:53;;;;;;;39.05;34.55;;;;;;;17.69;100.00;101162.81;5039080;28;20276;-53
2023/09/17 08:57:22;;;;;;;37.45;33.63;;;;;;;17.75;100.00;101159.47;5048252;28;20024;-53
2023/09/17 08:59:56;;;;;;;38.42;32.65;;;;;;;17.80;100.00;101167.06;5047637;28;20025;-52
2023/09/17 09:02:28;;;;;;;39.80;33.92;;;;;;;17.83;100.00;101177.50;5048418;28;20057;-52
2023/09/17 09:04:55;;;;;;;36.90;32.97;;;;;;;17.85;100.00;101172.81;5042172;28;20049;-52
2023/09/17 09:07:22;;;;;;;38.95;34.75;;;;;;;17.86;100.00;101182.56;5043604;28;20033;-52
2023/09/17 09:09:49;;;;;;;39.50;32.03;;;;;;;17.92;100.00;101182.81;5038063;28;20029;-55
2023/09/17 09:12:15;;;;;;;35.13;31.25;;;;;;;17.97;100.00;101181.47;5044893;28;20029;-52
2023/09/17 09:14:44;;;;;;;42.58;34.40;;;;;;;17.97;100.00;101192.22;5049900;28;20497;-52
2023/09/17 09:17:10;;;;;;;42.30;35.90;;;;;;;17.99;100.00;101190.25;5043011;28;20108;-52
2023/09/17 09:19:36;;;;;;;41.13;35.42;;;;;;;18.00;100.00;101195.47;5045343;28;20025;-53
2023/09/17 09:22:02;;;;;;;48.63;37.33;;;;;;;17.99;100.00;101201.00;5046905;28;20406;-54
2023/09/17 09:24:48;;;;;;;47.33;37.15;;;;;;;18.06;100.00;101180.53;5050386;28;20025;-52
2023/09/17 09:27:14;;;;;;;44.60;37.33;;;;;;;18.05;100.00;101195.84;5046703;28;20074;-52
2023/09/17 09:29:42;;;;;;;46.35;35.22;;;;;;;18.06;100.00;101186.75;5048640;28;20022;-53
2023/09/17 09:32:11;;;;;;;41.87;36.67;;;;;;;18.10;100.00;101181.91;5046012;28;20029;-53
2023/09/17 09:34:38;;;;;;;47.17;36.30;;;;;;;18.12;100.00;101182.59;5049029;28;20044;-54
2023/09/17 09:37:08;;;;;;;44.58;35.88;;;;;;;18.16;100.00;101167.00;5050044;28;20032;-52
2023/09/17 09:39:35;;;;;;;41.58;35.15;;;;;;;18.18;100.00;101173.06;5057662;28;20132;-51
2023/09/17 09:42:01;;;;;;;44.83;35.63;;;;;;;18.20;100.00;101168.34;5049367;28;20043;-52
2023/09/17 09:44:29;;;;;;;41.10;34.83;;;;;;;18.25;100.00;101168.72;5047604;28;20056;-52
2023/09/17 09:46:59;;;;;;;41.33;34.90;;;;;;;18.27;100.00;101169.41;5052855;28;20378;-52
2023/09/17 09:49:24;;;;;;;43.85;35.83;;;;;;;18.27;100.00;101172.94;5046045;28;20051;-52
2023/09/17 09:51:51;;;;;;;43.38;36.28;;;;;;;18.29;100.00;101173.63;5046132;28;20112;-54
2023/09/17 09:54:16;;;;;;;41.45;35.10;;;;;;;18.31;100.00;101170.78;5046063;28;20040;-52
2023/09/17 09:56:42;;;;;;;40.80;34.75;;;;;;;18.33;100.00;101170.63;5046072;28;20021;-54
2023/09/17 09:59:07;;;;;;;42.40;35.35;;;;;;;18.35;100.00;101165.91;5051841;28;20054;-52
2023/09/17 10:01:37;;;;;;;44.78;38.30;;;;;;;18.38;100.00;101177.19;5049800;28;20029;-52
2023/09/17 10:04:08;;;;;;;43.20;35.15;;;;;;;18.40;100.00;101171.66;5049110;28;20475;-53
2023/09/17 10:06:35;;;;;;;40.60;35.28;;;;;;;18.43;100.00;101169.47;5045932;28;20057;-55
2023/09/17 10:09:02;;;;;;;43.55;35.60;;;;;;;18.49;100.00;101170.69;5043458;28;20389;-54
2023/09/17 10:11:28;;;;;;;44.95;37.30;;;;;;;18.54;100.00;101167.53;5043536;28;20037;-52
2023/09/17 10:13:53;;;;;;;44.67;36.97;;;;;;;18.58;100.00;101164.31;5044275;28;20028;-51
2023/09/17 10:16:19;;;;;;;44.30;35.42;;;;;;;18.63;100.00;101161.97;5049509;28;20683;-55
2023/09/17 10:18:45;;;;;;;42.85;36.20;;;;;;;18.73;100.00;101159.16;5047542;28;20498;-54
2023/09/17 10:21:13;;;;;;;45.80;36.30;;;;;;;18.83;100.00;101159.06;5048958;28;20031;-52
2023/09/17 10:23:39;;;;;;;43.15;36.08;;;;;;;18.91;100.00;101159.09;5046578;28;20112;-54
2023/09/17 10:26:05;;;;;;;44.20;34.95;;;;;;;18.99;100.00;101156.41;5046068;28;20132;-52
2023/09/17 10:28:34;;;;;;;44.10;35.92;;;;;;;19.09;100.00;101150.88;5050276;28;20080;-52
2023/09/17 10:31:01;;;;;;;42.00;35.55;;;;;;;19.16;100.00;101151.06;5050022;28;20368;-54
2023/09/17 10:33:28;;;;;;;39.80;33.45;;;;;;;19.23;100.00;101152.94;5042782;28;20032;-52
2023/09/17 10:35:56;;;;;;;40.63;34.63;;;;;;;19.31;100.00;101156.63;5052599;28;20116;-54
2023/09/17 10:38:24;;;;;;;44.47;34.90;;;;;;;19.36;100.00;101155.09;5042360;28;20025;-52
2023/09/17 10:40:50;;;;;;;37.73;32.13;;;;;;;19.42;100.00;101157.13;5044498;28;20017;-55
2023/09/17 10:43:17;;;;;;;35.80;31.13;;;;;;;19.48;100.00;101152.09;5044259;28;20056;-54
2023/09/17 10:45:44;;;;;;;38.13;32.30;;;;;;;19.51;100.00;101146.38;5044925;28;20029;-52
2023/09/17 10:48:11;;;;;;;40.78;32.45;;;;;;;19.58;100.00;101142.84;5042535;28;20399;-52
2023/09/17 10:50:38;;;;;;;37.78;32.08;;;;;;;19.67;100.00;101145.50;5044297;28;20043;-54
2023/09/17 10:53:04;;;;;;;40.70;32.58;;;;;;;19.74;100.00;101150.03;5041275;28;20109;-52
2023/09/17 10:55:36;;;;;;;38.20;32.03;;;;;;;19.84;100.00;101140.97;5045226;28;20047;-53
2023/09/17 10:58:15;;;;;;;35.65;31.77;;;;;;;19.96;100.00;101139.59;5052632;28;20059;-54